Time;durP1;ratioP1;P1;durP2;ratioP2;P2;SDS_P1;SDS_P2;PMS_P1;PMS_P2;Temp;Humidity;BMP_temperature;BMP_pressure;BME280_temperature;BME280_humidity;BME280_pressure;Samples;Min_cycle;Max_cycle;Signal;HPM_P1;HPM_P2
2020/12/10 00:00:42;;;;;;;14.47;11.07;;;2.60;94.60;;;;;;5060972;28;20226;-85
2020/12/10 00:03:14;;;;;;;12.40;10.50;;;2.60;94.60;;;;;;5050714;28;20295;-87
2020/12/10 00:05:56;;;;;;;13.70;11.43;;;2.70;94.60;;;;;;5050591;28;20350;-88
2020/12/10 00:08:34;;;;;;;12.33;10.50;;;2.70;94.60;;;;;;5051595;28;20297;-90
2020/12/10 00:11:04;;;;;;;12.37;9.87;;;2.80;94.60;;;;;;5048569;28;20291;-87
2020/12/10 00:13:32;;;;;;;13.20;10.73;;;2.70;94.40;;;;;;5051714;28;20210;-87
2020/12/10 00:15:58;;;;;;;12.27;10.80;;;2.70;94.20;;;;;;5048028;28;20233;-88
2020/12/10 00:18:26;;;;;;;12.70;10.70;;;2.60;94.50;;;;;;5053087;28;20260;-84
2020/12/10 00:20:52;;;;;;;12.63;10.73;;;2.70;94.60;;;;;;5045311;28;20370;-89
2020/12/10 00:23:18;;;;;;;11.77;10.17;;;2.70;94.60;;;;;;5047292;28;20561;-86
2020/12/10 00:25:46;;;;;;;13.20;11.10;;;2.70;94.40;;;;;;5044868;28;20234;-89
2020/12/10 00:28:12;;;;;;;11.80;9.97;;;2.70;94.60;;;;;;5047112;28;20212;-87
2020/12/10 00:30:38;;;;;;;11.53;10.10;;;2.80;94.00;;;;;;5044837;28;20428;-85
2020/12/10 00:33:05;;;;;;;11.70;10.27;;;2.70;94.10;;;;;;5044549;28;20210;-87
2020/12/10 00:35:31;;;;;;;13.07;10.73;;;2.60;94.10;;;;;;5043245;28;20209;-88
2020/12/10 00:37:58;;;;;;;13.53;11.17;;;2.50;94.50;;;;;;5046567;28;20201;-87
2020/12/10 00:40:24;;;;;;;12.13;10.57;;;2.50;94.50;;;;;;5043139;28;20237;-89
2020/12/10 00:42:52;;;;;;;10.70;9.50;;;2.50;94.50;;;;;;5046831;28;20507;-83
2020/12/10 00:45:19;;;;;;;12.17;10.87;;;2.50;94.50;;;;;;5043110;28;20548;-85
2020/12/10 00:47:46;;;;;;;12.47;10.30;;;2.60;94.60;;;;;;5045949;28;20508;-85
2020/12/10 00:50:12;;;;;;;12.07;10.53;;;2.60;94.40;;;;;;5042672;28;20206;-88
2020/12/10 00:52:39;;;;;;;11.93;10.20;;;2.60;94.60;;;;;;5040056;28;20226;-86
2020/12/10 00:55:06;;;;;;;12.10;10.73;;;2.50;94.50;;;;;;5039699;28;20206;-85
2020/12/10 00:57:32;;;;;;;12.27;10.87;;;2.50;94.50;;;;;;5041450;28;20237;-87
2020/12/10 00:59:59;;;;;;;12.27;10.77;;;2.40;94.50;;;;;;5041683;28;20226;-83
2020/12/10 01:02:26;;;;;;;12.97;10.77;;;2.40;94.90;;;;;;5040770;28;20232;-87
2020/12/10 01:04:52;;;;;;;11.47;10.07;;;2.40;94.50;;;;;;5041505;28;20209;-86
2020/12/10 01:07:19;;;;;;;11.63;10.43;;;2.50;94.50;;;;;;5041789;28;20236;-85
2020/12/10 01:09:45;;;;;;;12.60;10.63;;;2.50;94.50;;;;;;5043351;28;20197;-89
2020/12/10 01:12:12;;;;;;;12.17;10.53;;;2.60;94.60;;;;;;5042357;28;20225;-88
2020/12/10 01:14:38;;;;;;;11.93;10.47;;;2.60;94.60;;;;;;5043251;28;20202;-83
2020/12/10 01:17:05;;;;;;;12.03;10.27;;;2.50;94.50;;;;;;5050844;28;20244;-83
2020/12/10 01:19:32;;;;;;;12.67;10.00;;;2.50;94.50;;;;;;5056746;28;20214;-83
2020/12/10 01:21:58;;;;;;;10.73;9.37;;;2.50;94.50;;;;;;5057550;28;20693;-85
2020/12/10 01:24:24;;;;;;;11.50;9.83;;;2.50;94.50;;;;;;5058170;28;20750;-84
2020/12/10 01:26:51;;;;;;;11.93;10.13;;;2.50;94.50;;;;;;5056130;28;20237;-87
2020/12/10 01:29:17;;;;;;;11.27;10.07;;;2.50;94.50;;;;;;5045500;28;20214;-86
2020/12/10 01:31:47;;;;;;;11.73;9.83;;;2.40;94.50;;;;;;5044534;28;20238;-88
2020/12/10 01:34:14;;;;;;;11.40;9.80;;;2.40;94.50;;;;;;5047803;28;20211;-84
2020/12/10 01:36:41;;;;;;;10.50;9.40;;;2.40;94.90;;;;;;5054697;28;20240;-88
2020/12/10 01:39:07;;;;;;;10.77;9.53;;;2.40;94.70;;;;;;5054671;28;20194;-85
2020/12/10 01:41:35;;;;;;;10.77;9.50;;;2.40;95.10;;;;;;5056322;28;20233;-87
2020/12/10 01:44:03;;;;;;;12.03;9.57;;;2.30;94.50;;;;;;5056355;28;20213;-85
2020/12/10 01:46:30;;;;;;;10.73;9.60;;;2.30;94.70;;;;;;5054387;28;20225;-85
2020/12/10 01:48:58;;;;;;;11.93;9.97;;;2.40;94.80;;;;;;5054340;28;20664;-84
2020/12/10 01:51:25;;;;;;;10.73;9.53;;;2.50;94.50;;;;;;5052991;28;20645;-85
2020/12/10 01:53:51;;;;;;;11.80;9.97;;;2.70;94.60;;;;;;5053987;28;20201;-84
2020/12/10 01:56:18;;;;;;;11.33;9.27;;;2.70;94.60;;;;;;5053780;28;20232;-85
2020/12/10 01:58:45;;;;;;;10.80;9.23;;;2.60;94.60;;;;;;5055867;28;20273;-85
2020/12/10 02:01:13;;;;;;;11.73;9.40;;;2.60;94.60;;;;;;5049056;28;20637;-84
2020/12/10 02:03:39;;;;;;;12.40;10.13;;;2.60;94.60;;;;;;5056918;28;20206;-90
2020/12/10 02:06:05;;;;;;;12.73;9.70;;;2.60;94.60;;;;;;5054547;28;20230;-85
2020/12/10 02:08:33;;;;;;;12.40;10.07;;;2.70;94.60;;;;;;5058796;28;20273;-84
2020/12/10 02:11:02;;;;;;;11.33;10.07;;;2.50;94.50;;;;;;5056477;28;20236;-83
2020/12/10 02:13:28;;;;;;;13.30;10.87;;;2.50;94.50;;;;;;5058857;28;20201;-87
2020/12/10 02:15:55;;;;;;;11.27;9.47;;;2.50;94.50;;;;;;5058221;28;20226;-84
2020/12/10 02:18:21;;;;;;;12.67;9.77;;;2.50;94.50;;;;;;5055452;28;20574;-85
2020/12/10 02:20:47;;;;;;;10.93;9.40;;;2.50;94.50;;;;;;5052813;28;20231;-86
2020/12/10 02:23:15;;;;;;;12.67;10.40;;;2.50;94.50;;;;;;5052176;28;20240;-86
2020/12/10 02:25:41;;;;;;;12.53;10.07;;;2.60;94.60;;;;;;5049402;28;20235;-84
2020/12/10 02:28:15;;;;;;;11.53;10.33;;;2.50;94.50;;;;;;5045831;28;20201;-88
2020/12/10 02:30:43;;;;;;;12.50;10.00;;;2.60;94.60;;;;;;5035655;28;20241;-85
2020/12/10 02:33:11;;;;;;;11.97;10.37;;;2.70;94.60;;;;;;5040229;28;20687;-89
2020/12/10 02:35:39;;;;;;;11.73;9.97;;;2.70;94.60;;;;;;5051637;28;20239;-86
2020/12/10 02:38:07;;;;;;;11.60;10.13;;;2.70;94.50;;;;;;5054560;28;20232;-84
2020/12/10 02:40:37;;;;;;;10.97;9.43;;;2.70;93.90;;;;;;5055164;28;20226;-87
2020/12/10 02:43:03;;;;;;;10.37;8.97;;;2.70;94.20;;;;;;5052527;28;20198;-84
2020/12/10 02:45:30;;;;;;;11.17;9.83;;;2.70;94.00;;;;;;5044111;28;20202;-89
2020/12/10 02:47:57;;;;;;;12.10;10.53;;;2.70;94.10;;;;;;5038584;28;20206;-87
2020/12/10 02:50:24;;;;;;;12.23;10.13;;;2.60;94.10;;;;;;5047292;28;20537;-86
2020/12/10 02:52:50;;;;;;;10.27;8.77;;;2.70;94.40;;;;;;5054714;28;20205;-87
2020/12/10 02:55:17;;;;;;;9.73;8.20;;;2.70;94.00;;;;;;5054063;28;20202;-85
2020/12/10 02:57:44;;;;;;;10.47;8.83;;;2.80;93.50;;;;;;5052975;28;20202;-85
2020/12/10 03:00:11;;;;;;;10.23;8.50;;;2.80;93.70;;;;;;5051302;28;20225;-88
2020/12/10 03:02:38;;;;;;;11.80;9.90;;;2.70;93.70;;;;;;5051012;28;20226;-87
2020/12/10 03:05:06;;;;;;;10.73;9.43;;;2.80;94.00;;;;;;5052565;28;20210;-87
2020/12/10 03:07:33;;;;;;;11.10;9.23;;;2.90;93.70;;;;;;5053033;28;20225;-86
2020/12/10 03:09:59;;;;;;;11.07;9.50;;;2.90;93.50;;;;;;5050434;28;20640;-85
2020/12/10 03:12:26;;;;;;;11.23;9.90;;;3.00;93.40;;;;;;5052699;28;20261;-86
2020/12/10 03:14:53;;;;;;;11.83;9.63;;;3.10;93.40;;;;;;5052759;28;20228;-86
2020/12/10 03:17:20;;;;;;;11.80;9.67;;;3.10;93.10;;;;;;5058239;28;20325;-86
2020/12/10 03:19:46;;;;;;;11.50;9.90;;;3.10;93.20;;;;;;5048455;28;20202;-87
2020/12/10 03:22:14;;;;;;;12.40;10.47;;;3.20;93.00;;;;;;5052270;28;20244;-86
2020/12/10 03:24:41;;;;;;;11.23;9.60;;;3.20;93.00;;;;;;5049527;28;20692;-88
2020/12/10 03:27:07;;;;;;;12.23;10.00;;;3.10;93.10;;;;;;5053782;28;20236;-86
2020/12/10 03:29:34;;;;;;;11.83;9.63;;;3.00;92.90;;;;;;5049827;28;20194;-90
2020/12/10 03:32:01;;;;;;;10.50;9.20;;;3.00;93.40;;;;;;5046096;28;20365;-87
2020/12/10 03:34:27;;;;;;;9.77;8.47;;;3.00;93.30;;;;;;5048319;28;20203;-86
2020/12/10 03:36:56;;;;;;;10.73;8.70;;;3.00;93.20;;;;;;5051671;28;20352;-87
2020/12/10 03:39:25;;;;;;;10.33;8.47;;;3.00;93.20;;;;;;5053037;28;20198;-89
2020/12/10 03:41:53;;;;;;;9.57;7.93;;;2.90;93.10;;;;;;5052417;28;20225;-86
2020/12/10 03:44:19;;;;;;;9.70;8.27;;;2.90;93.10;;;;;;5047422;28;20657;-86
2020/12/10 03:46:46;;;;;;;10.97;8.93;;;3.00;92.90;;;;;;5051501;28;20752;-86
2020/12/10 03:49:14;;;;;;;10.33;8.30;;;3.00;92.70;;;;;;5054338;28;20208;-86
2020/12/10 03:51:40;;;;;;;9.60;8.13;;;3.00;92.90;;;;;;5054397;28;20239;-85
2020/12/10 03:54:07;;;;;;;9.87;8.33;;;3.00;93.00;;;;;;5060057;28;20208;-86
2020/12/10 03:56:34;;;;;;;10.33;8.60;;;2.90;93.00;;;;;;5055765;28;20577;-85
2020/12/10 03:59:01;;;;;;;11.13;9.03;;;2.90;93.20;;;;;;5055776;28;20193;-85
2020/12/10 04:01:28;;;;;;;13.67;9.20;;;3.00;92.90;;;;;;5054333;28;20312;-86
2020/12/10 04:03:54;;;;;;;11.47;9.00;;;2.90;93.00;;;;;;5053435;28;20666;-87
2020/12/10 04:06:22;;;;;;;11.97;9.10;;;2.90;92.90;;;;;;5057490;28;20229;-85
2020/12/10 04:08:48;;;;;;;10.47;8.83;;;2.90;93.20;;;;;;5056977;28;20198;-87
2020/12/10 04:11:15;;;;;;;10.77;9.13;;;2.90;93.10;;;;;;5055211;28;20571;-86
2020/12/10 04:13:41;;;;;;;11.10;9.17;;;2.80;93.20;;;;;;5060874;28;20198;-87
2020/12/10 04:16:08;;;;;;;11.07;9.43;;;2.90;93.50;;;;;;5055397;28;20583;-86
2020/12/10 04:18:38;;;;;;;10.20;8.50;;;2.90;93.40;;;;;;5055387;28;20740;-88
2020/12/10 04:21:05;;;;;;;11.70;9.67;;;3.00;93.20;;;;;;5054371;28;20232;-87
2020/12/10 04:23:32;;;;;;;12.03;8.80;;;3.00;92.90;;;;;;5059531;28;20212;-86
2020/12/10 04:25:58;;;;;;;10.87;9.27;;;2.90;93.20;;;;;;5061087;28;20229;-85
2020/12/10 04:28:25;;;;;;;11.10;9.20;;;3.00;93.30;;;;;;5055037;28;20210;-86
2020/12/10 04:30:51;;;;;;;12.33;9.23;;;3.00;93.00;;;;;;5053546;28;20232;-84
2020/12/10 04:33:18;;;;;;;11.00;8.57;;;3.00;93.30;;;;;;5056949;28;20198;-85
2020/12/10 04:35:44;;;;;;;10.30;8.63;;;3.00;93.30;;;;;;5053810;28;20239;-86
2020/12/10 04:38:11;;;;;;;11.23;8.53;;;3.10;92.60;;;;;;5049810;28;20210;-87
2020/12/10 04:40:38;;;;;;;10.40;8.83;;;3.10;92.60;;;;;;5044626;28;20212;-85
2020/12/10 04:43:06;;;;;;;11.30;8.77;;;3.20;92.40;;;;;;5054017;28;20296;-85
2020/12/10 04:45:33;;;;;;;9.93;8.57;;;3.10;92.30;;;;;;5052512;28;20201;-87
2020/12/10 04:48:00;;;;;;;10.00;8.87;;;3.10;92.50;;;;;;5052123;28;20208;-88
2020/12/10 04:50:28;;;;;;;11.77;8.73;;;3.10;92.60;;;;;;5047170;28;20812;-85
2020/12/10 04:52:55;;;;;;;9.93;8.60;;;3.20;92.50;;;;;;5049012;28;20202;-85
2020/12/10 04:55:23;;;;;;;10.93;8.70;;;3.20;92.40;;;;;;5050223;28;20203;-89
2020/12/10 04:57:53;;;;;;;9.87;7.87;;;3.30;92.10;;;;;;5053541;28;20202;-86
2020/12/10 05:00:21;;;;;;;11.70;8.70;;;3.20;92.30;;;;;;5053782;28;20213;-87
2020/12/10 05:02:47;;;;;;;11.37;9.00;;;3.10;92.60;;;;;;5054266;28;20214;-86
2020/12/10 05:05:27;;;;;;;10.10;8.53;;;3.10;92.50;;;;;;5055587;28;20259;-86
2020/12/10 05:07:54;;;;;;;12.07;9.57;;;3.10;92.60;;;;;;5050284;28;20221;-88
2020/12/10 05:10:21;;;;;;;10.37;8.63;;;3.10;92.60;;;;;;5050762;28;20559;-85
2020/12/10 05:12:48;;;;;;;11.47;8.53;;;3.10;92.70;;;;;;5051981;28;20550;-86
2020/12/10 05:15:17;;;;;;;10.80;8.73;;;3.00;92.50;;;;;;5055926;28;20209;-85
2020/12/10 05:17:44;;;;;;;11.53;8.87;;;3.00;92.40;;;;;;5052733;28;20830;-87
2020/12/10 05:20:10;;;;;;;11.00;8.97;;;3.00;92.50;;;;;;5053918;28;20198;-87
2020/12/10 05:22:44;;;;;;;10.03;8.30;;;3.00;92.50;;;;;;5051019;28;20316;-85
2020/12/10 05:25:11;;;;;;;9.93;8.53;;;3.00;92.50;;;;;;5051295;28;20202;-88
2020/12/10 05:27:38;;;;;;;10.03;8.83;;;3.10;92.80;;;;;;5050814;28;20218;-86
2020/12/10 05:30:05;;;;;;;10.67;9.37;;;3.20;92.80;;;;;;5046573;28;20210;-88
2020/12/10 05:32:38;;;;;;;10.30;9.00;;;3.20;92.60;;;;;;5051935;28;20289;-84
2020/12/10 05:35:18;;;;;;;11.03;8.63;;;3.30;92.40;;;;;;5054098;28;20679;-88
2020/12/10 05:37:45;;;;;;;10.20;8.13;;;3.30;92.20;;;;;;5055482;28;20234;-89
2020/12/10 05:40:11;;;;;;;10.60;9.20;;;3.30;92.20;;;;;;5047621;28;20201;-90
2020/12/10 05:42:39;;;;;;;12.23;9.83;;;3.30;92.30;;;;;;5040161;28;20599;-85
2020/12/10 05:45:14;;;;;;;11.40;9.17;;;3.20;92.20;;;;;;5047512;28;20640;-87
2020/12/10 05:47:48;;;;;;;11.23;9.13;;;3.10;92.40;;;;;;5057167;28;20240;-89
2020/12/10 05:50:15;;;;;;;11.50;9.93;;;3.00;92.60;;;;;;5058835;28;20714;-85
2020/12/10 05:55:36;;;;;;;12.93;10.20;;;2.90;93.10;;;;;;5057976;28;20298;-85
2020/12/10 05:58:04;;;;;;;13.43;9.67;;;2.80;92.90;;;;;;5059009;28;20576;-86
2020/12/10 06:00:31;;;;;;;12.43;9.90;;;2.70;93.30;;;;;;5623635;22;20213;-87
2020/12/10 06:07:15;;;;;;;11.80;9.17;;;2.70;93.40;;;;;;5062541;28;20229;-86
2020/12/10 06:10:01;;;;;;;11.07;8.80;;;2.70;93.50;;;;;;5062619;28;20280;-86
2020/12/10 06:15:50;;;;;;;12.13;9.93;;;2.80;93.10;;;;;;5067301;28;20239;-86
2020/12/10 06:18:17;;;;;;;11.80;9.83;;;2.80;93.10;;;;;;5061694;28;20194;-87
2020/12/10 06:20:44;;;;;;;10.67;9.10;;;2.80;93.00;;;;;;5058083;28;20204;-91
2020/12/10 06:23:42;;;;;;;11.63;9.50;;;2.80;93.20;;;;;;5053475;28;20190;-91
2020/12/10 06:26:37;;;;;;;13.23;10.20;;;2.80;93.20;;;;;;5050338;28;20240;-92
2020/12/10 06:32:20;;;;;;;12.07;9.53;;;2.90;93.10;;;;;;5057772;28;20269;-88
2020/12/10 06:34:55;;;;;;;13.10;9.70;;;2.90;93.00;;;;;;5054716;28;20194;-89
2020/12/10 06:37:47;;;;;;;14.23;10.70;;;2.80;92.80;;;;;;5048842;28;20233;-88
2020/12/10 06:40:36;;;;;;;13.73;10.53;;;2.70;93.00;;;;;;5057218;28;20194;-87
2020/12/10 06:43:15;;;;;;;14.37;11.20;;;2.80;93.20;;;;;;5055118;28;20722;-86
2020/12/10 06:45:43;;;;;;;13.33;10.37;;;2.80;93.20;;;;;;5057368;28;20280;-87
2020/12/10 06:48:10;;;;;;;14.03;11.20;;;2.80;93.10;;;;;;5053296;28;20210;-91
2020/12/10 06:50:38;;;;;;;14.43;11.70;;;2.80;93.00;;;;;;5051362;28;20253;-86
2020/12/10 06:53:15;;;;;;;14.33;11.47;;;2.90;92.70;;;;;;5051810;28;20194;-89
2020/12/10 06:56:02;;;;;;;14.63;11.80;;;3.00;92.80;;;;;;5046067;28;20229;-88
2020/12/10 06:58:50;;;;;;;16.60;12.43;;;2.90;92.40;;;;;;5054116;28;20209;-87
2020/12/10 07:01:28;;;;;;;16.43;12.00;;;2.90;92.80;;;;;;5027010;28;20261;-89
2020/12/10 07:04:12;;;;;;;16.07;13.10;;;2.80;93.00;;;;;;5029283;28;20210;-88
2020/12/10 07:06:38;;;;;;;14.97;12.00;;;2.80;92.70;;;;;;5029623;28;20241;-89
2020/12/10 07:09:06;;;;;;;15.27;12.10;;;2.80;92.90;;;;;;5030081;28;20213;-90
2020/12/10 07:11:35;;;;;;;15.23;12.23;;;2.80;92.80;;;;;;5031896;28;20319;-90
2020/12/10 07:14:20;;;;;;;15.63;12.57;;;2.80;92.80;;;;;;5027240;28;20231;-84
2020/12/10 07:16:47;;;;;;;18.30;13.70;;;2.80;92.70;;;;;;5030117;28;20292;-89
2020/12/10 07:19:13;;;;;;;17.87;13.60;;;2.80;92.90;;;;;;5034698;28;20190;-89
2020/12/10 07:21:40;;;;;;;15.70;12.43;;;2.80;92.60;;;;;;5027554;28;20237;-87
2020/12/10 07:24:06;;;;;;;19.10;14.63;;;2.70;92.50;;;;;;5031553;28;20198;-88
2020/12/10 07:26:33;;;;;;;21.03;13.77;;;2.70;92.60;;;;;;5026195;28;20233;-86
2020/12/10 07:29:00;;;;;;;17.67;12.97;;;2.60;92.70;;;;;;5024006;28;20230;-87
2020/12/10 07:31:27;;;;;;;17.60;13.20;;;2.60;92.60;;;;;;5024069;28;20253;-86
2020/12/10 07:33:55;;;;;;;16.20;12.90;;;2.50;92.60;;;;;;5032502;28;20209;-86
2020/12/10 07:36:22;;;;;;;19.20;13.97;;;2.60;92.90;;;;;;5029826;28;20230;-88
2020/12/10 07:38:48;;;;;;;17.50;13.77;;;2.60;92.90;;;;;;5036130;28;20206;-85
2020/12/10 07:41:15;;;;;;;20.53;14.60;;;2.60;93.10;;;;;;5016981;28;20712;-85
2020/12/10 07:43:45;;;;;;;18.97;13.73;;;2.50;92.90;;;;;;5009225;28;20206;-86
2020/12/10 07:46:13;;;;;;;17.33;13.10;;;2.60;93.20;;;;;;5022046;28;20229;-84
2020/12/10 07:48:48;;;;;;;20.37;15.23;;;2.60;93.00;;;;;;5030027;28;20209;-86
2020/12/10 07:51:19;;;;;;;18.87;13.93;;;2.60;93.10;;;;;;5026831;28;20258;-83
2020/12/10 07:53:46;;;;;;;20.37;14.60;;;2.60;93.10;;;;;;5037044;28;20198;-85
2020/12/10 07:56:20;;;;;;;19.17;14.57;;;2.60;93.30;;;;;;5032056;28;20238;-85
2020/12/10 07:59:00;;;;;;;17.40;13.63;;;2.70;93.20;;;;;;5032956;28;20191;-88
2020/12/10 08:01:34;;;;;;;18.47;14.33;;;2.70;93.00;;;;;;5036623;28;20239;-86
2020/12/10 08:04:13;;;;;;;20.13;15.03;;;2.70;93.00;;;;;;5036373;28;20212;-86
2020/12/10 08:06:43;;;;;;;25.23;15.23;;;2.70;93.10;;;;;;5040475;28;20289;-86
2020/12/10 08:09:10;;;;;;;19.37;15.00;;;2.70;93.00;;;;;;5039796;28;20205;-84
2020/12/10 08:11:53;;;;;;;20.27;15.07;;;2.60;93.00;;;;;;5036616;28;20301;-88
2020/12/10 08:14:27;;;;;;;18.27;14.20;;;2.70;93.00;;;;;;5034001;28;20234;-87
2020/12/10 08:16:54;;;;;;;18.50;14.07;;;2.60;92.90;;;;;;5035966;28;20231;-90
2020/12/10 08:19:22;;;;;;;19.93;14.17;;;2.60;93.00;;;;;;5038203;28;20209;-85
2020/12/10 08:21:55;;;;;;;19.90;14.73;;;2.60;93.00;;;;;;5034665;28;20219;-85
2020/12/10 08:24:35;;;;;;;20.23;15.43;;;2.70;93.00;;;;;;5028290;28;20207;-87
2020/12/10 08:27:02;;;;;;;21.47;14.90;;;2.60;92.80;;;;;;5029412;28;20237;-86
2020/12/10 08:29:28;;;;;;;22.10;15.83;;;2.60;92.80;;;;;;5032391;28;20202;-85
2020/12/10 08:32:06;;;;;;;20.03;15.03;;;2.60;92.90;;;;;;5028681;28;20237;-88
2020/12/10 08:34:34;;;;;;;22.03;16.50;;;2.60;92.90;;;;;;5025740;28;20237;-90
2020/12/10 08:37:05;;;;;;;22.43;16.20;;;2.60;93.10;;;;;;5020649;28;20245;-88
2020/12/10 08:39:33;;;;;;;22.90;15.60;;;2.60;92.90;;;;;;5027520;28;20204;-87
2020/12/10 08:41:59;;;;;;;20.30;14.87;;;2.60;93.10;;;;;;5033917;28;20727;-87
2020/12/10 08:44:26;;;;;;;21.77;14.93;;;2.60;92.80;;;;;;5034319;28;20198;-84
2020/12/10 08:47:00;;;;;;;19.53;15.43;;;2.70;93.20;;;;;;5032328;28;20236;-88
2020/12/10 08:49:26;;;;;;;21.93;15.77;;;2.80;92.90;;;;;;5033372;28;20207;-87
2020/12/10 08:51:54;;;;;;;17.83;13.73;;;2.80;92.40;;;;;;5030391;28;20242;-83
2020/12/10 08:54:20;;;;;;;17.60;12.73;;;2.80;92.40;;;;;;5028824;28;20203;-89
2020/12/10 08:56:47;;;;;;;20.27;14.60;;;2.80;92.10;;;;;;5021557;28;20242;-85
2020/12/10 08:59:13;;;;;;;21.37;14.77;;;2.80;92.20;;;;;;5028601;28;20218;-84
2020/12/10 09:01:52;;;;;;;18.07;13.60;;;2.80;92.00;;;;;;5025055;28;20228;-84
2020/12/10 09:04:18;;;;;;;20.33;15.73;;;3.00;92.10;;;;;;5020830;28;20589;-86
2020/12/10 09:06:44;;;;;;;18.87;14.70;;;3.00;91.90;;;;;;5020363;28;20241;-85
2020/12/10 09:09:12;;;;;;;20.60;15.00;;;3.10;92.00;;;;;;5025030;28;20199;-85
2020/12/10 09:11:38;;;;;;;22.70;15.70;;;3.20;92.00;;;;;;5021613;28;20226;-84
2020/12/10 09:14:05;;;;;;;21.23;15.83;;;3.20;91.50;;;;;;5020831;28;20563;-84
2020/12/10 09:16:31;;;;;;;19.63;14.37;;;3.20;91.70;;;;;;5023750;28;20226;-85
2020/12/10 09:18:58;;;;;;;18.00;13.40;;;3.10;91.60;;;;;;5031287;28;20202;-84
2020/12/10 09:21:24;;;;;;;19.17;14.30;;;3.10;91.50;;;;;;5026816;28;20242;-83
2020/12/10 09:23:51;;;;;;;21.40;15.23;;;3.30;91.50;;;;;;5030968;28;20226;-83
2020/12/10 09:26:19;;;;;;;20.87;16.20;;;3.40;91.20;;;;;;5024819;28;20253;-90
2020/12/10 09:28:46;;;;;;;21.97;16.50;;;3.50;91.00;;;;;;5030576;28;20195;-83
2020/12/10 09:31:14;;;;;;;22.63;16.40;;;3.60;90.80;;;;;;5030839;28;20230;-84
2020/12/10 09:33:41;;;;;;;23.13;16.27;;;3.60;90.80;;;;;;5030634;28;20199;-83
2020/12/10 09:36:07;;;;;;;21.37;15.80;;;3.70;90.40;;;;;;5027345;28;20222;-88
2020/12/10 09:38:39;;;;;;;20.17;15.57;;;3.80;90.30;;;;;;5024119;28;20217;-84
2020/12/10 09:41:06;;;;;;;19.27;15.13;;;3.80;90.10;;;;;;5026437;28;20226;-87
2020/12/10 09:43:40;;;;;;;18.53;14.30;;;3.70;90.10;;;;;;5025010;28;20212;-88
2020/12/10 09:46:10;;;;;;;17.70;13.37;;;3.70;90.00;;;;;;5027525;28;20214;-86
2020/12/10 09:48:37;;;;;;;17.60;13.43;;;3.50;90.70;;;;;;5034624;28;20213;-86
2020/12/10 09:51:04;;;;;;;19.10;14.33;;;3.70;90.30;;;;;;5026925;28;20237;-89
2020/12/10 09:53:36;;;;;;;18.40;14.10;;;3.90;89.20;;;;;;5027786;28;20207;-86
2020/12/10 09:58:42;;;;;;;18.00;13.63;;;4.00;88.30;;;;;;5027625;28;20508;-84
2020/12/10 10:01:12;;;;;;;17.50;13.53;;;4.00;88.30;;;;;;5031525;28;20593;-85
2020/12/10 10:03:38;;;;;;;18.37;13.73;;;4.20;88.50;;;;;;5032914;28;20209;-88
2020/12/10 10:06:05;;;;;;;18.20;14.33;;;4.20;87.90;;;;;;5026179;28;20218;-81
2020/12/10 10:08:32;;;;;;;18.37;14.43;;;4.30;86.70;;;;;;5030076;28;20642;-84
2020/12/10 10:10:59;;;;;;;18.83;13.80;;;4.40;86.80;;;;;;5024816;28;20733;-85
2020/12/10 10:13:25;;;;;;;21.17;16.47;;;4.50;87.00;;;;;;5030551;28;20504;-84
2020/12/10 10:15:52;;;;;;;22.63;16.60;;;4.30;87.50;;;;;;5028757;28;20262;-83
2020/12/10 10:18:19;;;;;;;20.67;15.93;;;3.50;90.10;;;;;;5033885;28;20197;-84
2020/12/10 10:20:46;;;;;;;22.77;16.60;;;3.50;90.60;;;;;;5032126;28;21256;-82
2020/12/10 10:23:12;;;;;;;24.13;17.13;;;3.70;90.10;;;;;;5024735;28;20226;-84
2020/12/10 10:25:40;;;;;;;23.77;16.97;;;3.80;89.80;;;;;;5025983;28;20230;-82
2020/12/10 10:28:07;;;;;;;27.93;19.03;;;4.00;88.40;;;;;;5016833;28;20207;-85
2020/12/10 10:30:34;;;;;;;24.27;16.73;;;3.90;89.10;;;;;;5022328;28;20202;-85
2020/12/10 10:33:04;;;;;;;57.87;32.03;;;3.90;88.30;;;;;;5023869;28;20218;-86
2020/12/10 10:35:30;;;;;;;28.33;19.20;;;3.90;88.30;;;;;;5015241;28;20547;-87
2020/12/10 10:37:57;;;;;;;41.33;26.30;;;3.90;88.30;;;;;;5016440;28;20206;-88
2020/12/10 10:40:25;;;;;;;33.00;21.93;;;3.80;89.70;;;;;;5024288;28;20211;-84
2020/12/10 10:42:51;;;;;;;27.83;18.30;;;3.70;90.10;;;;;;5028725;28;20237;-85
2020/12/10 10:45:17;;;;;;;26.87;18.13;;;3.60;90.10;;;;;;5036736;28;20205;-85
2020/12/10 10:47:44;;;;;;;30.27;21.00;;;3.60;90.60;;;;;;5031866;28;20240;-83
2020/12/10 10:50:11;;;;;;;26.23;18.90;;;3.70;90.50;;;;;;5036381;28;20225;-84
2020/12/10 10:52:38;;;;;;;25.73;18.03;;;3.80;90.10;;;;;;5038567;28;20234;-85
2020/12/10 10:55:04;;;;;;;24.20;16.97;;;3.90;88.30;;;;;;5043128;28;20195;-82
2020/12/10 10:57:31;;;;;;;25.77;17.07;;;3.90;88.30;;;;;;5036496;28;20594;-86
2020/12/10 10:59:57;;;;;;;24.40;16.70;;;4.00;88.30;;;;;;5037755;28;20304;-85
2020/12/10 11:02:24;;;;;;;25.97;16.97;;;3.90;88.30;;;;;;5046238;28;20711;-85
2020/12/10 11:04:51;;;;;;;23.27;15.90;;;4.00;88.30;;;;;;5048645;28;20263;-85
2020/12/10 11:07:19;;;;;;;25.20;17.60;;;4.00;88.30;;;;;;5048740;28;20230;-85
2020/12/10 11:09:45;;;;;;;25.17;17.40;;;3.80;88.20;;;;;;5033438;28;20638;-84
2020/12/10 11:12:13;;;;;;;28.80;17.80;;;3.70;88.80;;;;;;5034607;28;20611;-87
2020/12/10 11:14:39;;;;;;;25.77;17.93;;;3.80;89.80;;;;;;5045022;28;20214;-83
2020/12/10 11:17:06;;;;;;;29.13;19.33;;;3.70;89.00;;;;;;5036143;28;20290;-85
2020/12/10 11:19:32;;;;;;;27.73;19.10;;;3.70;89.50;;;;;;5020880;28;20414;-84
2020/12/10 11:22:00;;;;;;;26.37;17.87;;;3.70;89.40;;;;;;5031219;28;20709;-83
2020/12/10 11:24:27;;;;;;;27.83;18.03;;;3.70;90.00;;;;;;5030460;28;20207;-83
2020/12/10 11:26:53;;;;;;;30.80;19.17;;;3.70;89.60;;;;;;5041175;28;20230;-84
2020/12/10 11:29:20;;;;;;;26.97;17.93;;;3.60;90.10;;;;;;5036840;28;20199;-84
2020/12/10 11:31:46;;;;;;;26.13;17.73;;;3.70;90.00;;;;;;5025926;28;20219;-84
2020/12/10 11:34:13;;;;;;;30.80;19.37;;;3.80;90.20;;;;;;5037257;28;20206;-83
2020/12/10 11:36:39;;;;;;;27.57;18.60;;;3.90;88.90;;;;;;5029094;28;20230;-82
2020/12/10 11:39:06;;;;;;;27.53;19.13;;;4.00;88.30;;;;;;5028064;28;20565;-83
2020/12/10 11:41:33;;;;;;;27.67;18.80;;;4.10;88.40;;;;;;5036370;28;20244;-84
2020/12/10 11:44:00;;;;;;;28.10;19.03;;;4.00;88.30;;;;;;5033828;28;20267;-83
2020/12/10 11:46:26;;;;;;;30.93;19.77;;;3.90;88.30;;;;;;5035060;28;20218;-83
2020/12/10 11:48:52;;;;;;;29.77;19.10;;;3.80;88.20;;;;;;5033760;28;20205;-82
2020/12/10 11:51:19;;;;;;;27.17;17.77;;;3.80;88.90;;;;;;5026615;28;20222;-87
2020/12/10 11:53:48;;;;;;;27.37;19.03;;;3.70;88.20;;;;;;5020829;28;20645;-88
2020/12/10 11:56:14;;;;;;;28.83;19.33;;;3.50;88.90;;;;;;5019088;28;20716;-83
2020/12/10 11:58:41;;;;;;;27.10;17.77;;;3.60;89.50;;;;;;5034611;28;20552;-84
2020/12/10 12:01:08;;;;;;;26.00;18.30;;;3.60;89.80;;;;;;5032420;28;20218;-84
2020/12/10 12:03:34;;;;;;;26.10;17.73;;;3.60;89.30;;;;;;5031188;28;20645;-83
2020/12/10 12:06:01;;;;;;;29.87;18.73;;;3.60;89.70;;;;;;5031544;28;20234;-83
2020/12/10 12:08:28;;;;;;;27.93;17.63;;;3.50;89.60;;;;;;5035671;28;20203;-86
2020/12/10 12:10:55;;;;;;;27.37;18.07;;;3.40;89.80;;;;;;5028846;28;20596;-89
2020/12/10 12:13:21;;;;;;;27.77;18.13;;;3.40;90.30;;;;;;5034747;28;20210;-83
2020/12/10 12:15:48;;;;;;;27.03;17.73;;;3.60;90.20;;;;;;5025208;28;20232;-81
2020/12/10 12:18:16;;;;;;;27.27;17.13;;;3.50;90.20;;;;;;5036295;28;20225;-84
2020/12/10 12:20:43;;;;;;;27.87;18.67;;;3.50;90.20;;;;;;5025234;28;20217;-84
2020/12/10 12:23:09;;;;;;;29.03;17.97;;;3.50;90.20;;;;;;5030930;28;20223;-83
2020/12/10 12:25:36;;;;;;;27.90;18.20;;;3.50;90.40;;;;;;5028309;28;20202;-84
2020/12/10 12:28:02;;;;;;;29.73;18.63;;;3.50;90.50;;;;;;5025038;28;20882;-83
2020/12/10 12:30:29;;;;;;;24.93;17.20;;;3.60;90.50;;;;;;5030720;28;20209;-85
2020/12/10 12:32:56;;;;;;;24.57;16.93;;;3.70;90.20;;;;;;5026690;28;20571;-87
2020/12/10 12:35:22;;;;;;;25.57;17.07;;;3.70;89.70;;;;;;5028064;28;20198;-87
2020/12/10 12:37:49;;;;;;;24.00;16.40;;;3.60;90.30;;;;;;5037413;28;20265;-83
2020/12/10 12:40:17;;;;;;;23.67;16.47;;;3.40;90.10;;;;;;5015544;28;20199;-86
2020/12/10 12:42:44;;;;;;;29.23;19.50;;;3.50;90.30;;;;;;5022373;28;20237;-86
2020/12/10 12:45:11;;;;;;;23.87;16.30;;;3.30;90.20;;;;;;5027712;28;20229;-86
2020/12/10 12:47:37;;;;;;;23.17;16.57;;;3.30;90.40;;;;;;5030876;28;20599;-83
2020/12/10 12:50:05;;;;;;;25.40;17.40;;;3.30;90.70;;;;;;5032904;28;20294;-84
2020/12/10 12:52:31;;;;;;;24.17;15.87;;;3.40;90.70;;;;;;5029875;28;20241;-87
2020/12/10 12:54:58;;;;;;;21.90;15.63;;;3.50;90.60;;;;;;5034023;28;20639;-87
2020/12/10 12:57:25;;;;;;;23.43;16.20;;;3.60;90.10;;;;;;5030676;28;20215;-84
2020/12/10 12:59:51;;;;;;;22.53;16.37;;;3.50;90.20;;;;;;5029825;28;20536;-83
2020/12/10 13:02:18;;;;;;;23.27;15.97;;;3.50;90.20;;;;;;5029755;28;20231;-84